sensor_id;sensor_type;location;lat;lon;timestamp;pressure;altitude;pressure_sealevel;temperature
74321;BMP280;62738;45.772;4.804;2022-10-15T00:01:10;-23408.25;;;15.01
74321;BMP280;62738;45.772;4.804;2022-10-15T00:03:39;-23383.06;;;14.49
74321;BMP280;62738;45.772;4.804;2022-10-15T00:06:08;-23392.75;;;14.69
74321;BMP280;62738;45.772;4.804;2022-10-15T00:08:35;-23391.78;;;14.67
74321;BMP280;62738;45.772;4.804;2022-10-15T00:11:27;-23392.75;;;14.69
74321;BMP280;62738;45.772;4.804;2022-10-15T00:13:55;-23396.16;;;14.76
74321;BMP280;62738;45.772;4.804;2022-10-15T00:16:24;-23377.00;;;14.37
74321;BMP280;62738;45.772;4.804;2022-10-15T00:18:54;-23365.38;;;14.13
74321;BMP280;62738;45.772;4.804;2022-10-15T00:21:20;-23369.00;;;14.21
74321;BMP280;62738;45.772;4.804;2022-10-15T00:23:48;-23368.75;;;14.20
74321;BMP280;62738;45.772;4.804;2022-10-15T00:26:23;-23378.69;;;14.40
74321;BMP280;62738;45.772;4.804;2022-10-15T00:28:52;-23395.66;;;14.75
74321;BMP280;62738;45.772;4.804;2022-10-15T00:31:19;-23402.94;;;14.90
74321;BMP280;62738;45.772;4.804;2022-10-15T00:33:49;-23399.53;;;14.83
74321;BMP280;62738;45.772;4.804;2022-10-15T00:36:19;-23389.13;;;14.62
74321;BMP280;62738;45.772;4.804;2022-10-15T00:38:46;-23389.59;;;14.63
74321;BMP280;62738;45.772;4.804;2022-10-15T00:41:16;-23387.91;;;14.59
74321;BMP280;62738;45.772;4.804;2022-10-15T00:43:52;-23389.59;;;14.63
74321;BMP280;62738;45.772;4.804;2022-10-15T00:46:30;-23378.94;;;14.41
74321;BMP280;62738;45.772;4.804;2022-10-15T00:49:02;-23378.69;;;14.40
74321;BMP280;62738;45.772;4.804;2022-10-15T00:51:34;-23390.09;;;14.64
74321;BMP280;62738;45.772;4.804;2022-10-15T00:54:04;-23392.50;;;14.69
74321;BMP280;62738;45.772;4.804;2022-10-15T00:56:31;-23396.16;;;14.76
74321;BMP280;62738;45.772;4.804;2022-10-15T00:58:59;-23369.97;;;14.23
74321;BMP280;62738;45.772;4.804;2022-10-15T01:01:26;-23365.59;;;14.14
74321;BMP280;62738;45.772;4.804;2022-10-15T01:03:54;-23364.63;;;14.12
74321;BMP280;62738;45.772;4.804;2022-10-15T01:06:22;-23373.84;;;14.30
74321;BMP280;62738;45.772;4.804;2022-10-15T01:08:49;-23378.69;;;14.40
74321;BMP280;62738;45.772;4.804;2022-10-15T01:11:50;-23385.72;;;14.55
74321;BMP280;62738;45.772;4.804;2022-10-15T01:25:28;-23355.91;;;13.94
74321;BMP280;62738;45.772;4.804;2022-10-15T01:28:41;-23365.13;;;14.13
74321;BMP280;62738;45.772;4.804;2022-10-15T01:31:43;-23359.31;;;14.01
74321;BMP280;62738;45.772;4.804;2022-10-15T01:36:58;-23356.66;;;13.95
74321;BMP280;62738;45.772;4.804;2022-10-15T01:39:31;-23365.38;;;14.13
74321;BMP280;62738;45.772;4.804;2022-10-15T01:42:46;-23368.28;;;14.19
74321;BMP280;62738;45.772;4.804;2022-10-15T01:45:19;-23358.81;;;14.00
74321;BMP280;62738;45.772;4.804;2022-10-15T01:47:53;-23359.31;;;14.01
74321;BMP280;62738;45.772;4.804;2022-10-15T01:50:24;-23367.56;;;14.18
74321;BMP280;62738;45.772;4.804;2022-10-15T01:52:53;-23350.59;;;13.83
74321;BMP280;62738;45.772;4.804;2022-10-15T01:55:22;-23354.47;;;13.91
74321;BMP280;62738;45.772;4.804;2022-10-15T01:57:51;-23362.69;;;14.08
74321;BMP280;62738;45.772;4.804;2022-10-15T02:00:19;-23370.94;;;14.24
74321;BMP280;62738;45.772;4.804;2022-10-15T02:02:45;-23370.22;;;14.23
74321;BMP280;62738;45.772;4.804;2022-10-15T02:05:19;-23374.81;;;14.32
74321;BMP280;62738;45.772;4.804;2022-10-15T02:08:12;-23362.69;;;14.08
74321;BMP280;62738;45.772;4.804;2022-10-15T02:21:12;-23362.22;;;14.07
74321;BMP280;62738;45.772;4.804;2022-10-15T02:23:51;-23350.09;;;13.82
74321;BMP280;62738;45.772;4.804;2022-10-15T02:26:19;-23354.47;;;13.91
74321;BMP280;62738;45.772;4.804;2022-10-15T02:28:51;-23351.31;;;13.84
74321;BMP280;62738;45.772;4.804;2022-10-15T02:31:20;-23337.50;;;13.56
74321;BMP280;62738;45.772;4.804;2022-10-15T02:33:50;-23343.34;;;13.68
74321;BMP280;62738;45.772;4.804;2022-10-15T02:36:18;-23338.00;;;13.57
74321;BMP280;62738;45.772;4.804;2022-10-15T02:38:46;-23335.56;;;13.52
74321;BMP280;62738;45.772;4.804;2022-10-15T02:41:14;-23341.38;;;13.64
74321;BMP280;62738;45.772;4.804;2022-10-15T02:43:41;-23343.34;;;13.68
74321;BMP280;62738;45.772;4.804;2022-10-15T02:46:10;-23329.75;;;13.40
74321;BMP280;62738;45.772;4.804;2022-10-15T02:48:39;-23331.69;;;13.44
74321;BMP280;62738;45.772;4.804;2022-10-15T02:51:05;-23333.16;;;13.47
74321;BMP280;62738;45.772;4.804;2022-10-15T02:53:32;-23345.75;;;13.73
74321;BMP280;62738;45.772;4.804;2022-10-15T02:55:59;-23342.38;;;13.66
74321;BMP280;62738;45.772;4.804;2022-10-15T02:58:26;-23354.72;;;13.91
74321;BMP280;62738;45.772;4.804;2022-10-15T03:00:54;-23353.00;;;13.88
74321;BMP280;62738;45.772;4.804;2022-10-15T03:03:21;-23356.66;;;13.95
74321;BMP280;62738;45.772;4.804;2022-10-15T03:05:48;-23355.44;;;13.93
74321;BMP280;62738;45.772;4.804;2022-10-15T03:08:14;-23354.72;;;13.91
74321;BMP280;62738;45.772;4.804;2022-10-15T03:10:41;-23348.19;;;13.78
74321;BMP280;62738;45.772;4.804;2022-10-15T03:13:08;-23326.84;;;13.34
74321;BMP280;62738;45.772;4.804;2022-10-15T03:15:35;-23339.44;;;13.60
74321;BMP280;62738;45.772;4.804;2022-10-15T03:18:03;-23338.47;;;13.58
74321;BMP280;62738;45.772;4.804;2022-10-15T03:20:30;-23338.00;;;13.57
74321;BMP280;62738;45.772;4.804;2022-10-15T03:22:56;-23350.09;;;13.82
74321;BMP280;62738;45.772;4.804;2022-10-15T03:25:23;-23360.78;;;14.04
74321;BMP280;62738;45.772;4.804;2022-10-15T03:27:50;-23355.69;;;13.93
74321;BMP280;62738;45.772;4.804;2022-10-15T03:30:18;-23337.03;;;13.55
74321;BMP280;62738;45.772;4.804;2022-10-15T03:32:46;-23329.28;;;13.39
74321;BMP280;62738;45.772;4.804;2022-10-15T03:35:13;-23343.56;;;13.68
74321;BMP280;62738;45.772;4.804;2022-10-15T03:37:40;-23327.81;;;13.36
74321;BMP280;62738;45.772;4.804;2022-10-15T03:40:07;-23329.03;;;13.38
74321;BMP280;62738;45.772;4.804;2022-10-15T03:42:40;-23335.81;;;13.52
74321;BMP280;62738;45.772;4.804;2022-10-15T03:45:07;-23327.34;;;13.35
74321;BMP280;62738;45.772;4.804;2022-10-15T03:47:34;-23330.25;;;13.41
74321;BMP280;62738;45.772;4.804;2022-10-15T03:50:00;-23327.09;;;13.34
74321;BMP280;62738;45.772;4.804;2022-10-15T03:52:27;-23310.63;;;13.00
74321;BMP280;62738;45.772;4.804;2022-10-15T03:54:54;-23319.59;;;13.19
74321;BMP280;62738;45.772;4.804;2022-10-15T03:57:20;-23325.88;;;13.32
74321;BMP280;62738;45.772;4.804;2022-10-15T03:59:47;-23328.53;;;13.37
74321;BMP280;62738;45.772;4.804;2022-10-15T04:02:14;-23312.31;;;13.04
74321;BMP280;62738;45.772;4.804;2022-10-15T04:04:40;-23306.28;;;12.92
74321;BMP280;62738;45.772;4.804;2022-10-15T04:07:07;-23321.28;;;13.22
74321;BMP280;62738;45.772;4.804;2022-10-15T04:09:34;-23312.06;;;13.03
74321;BMP280;62738;45.772;4.804;2022-10-15T04:12:00;-23324.44;;;13.29
74321;BMP280;62738;45.772;4.804;2022-10-15T04:14:27;-23329.28;;;13.39
74321;BMP280;62738;45.772;4.804;2022-10-15T04:16:54;-23323.47;;;13.27
74321;BMP280;62738;45.772;4.804;2022-10-15T04:19:21;-23334.13;;;13.49
74321;BMP280;62738;45.772;4.804;2022-10-15T04:21:47;-23316.69;;;13.13
74321;BMP280;62738;45.772;4.804;2022-10-15T04:24:14;-23311.84;;;13.03
74321;BMP280;62738;45.772;4.804;2022-10-15T04:26:40;-23314.97;;;13.09
74321;BMP280;62738;45.772;4.804;2022-10-15T04:29:07;-23306.03;;;12.91
74321;BMP280;62738;45.772;4.804;2022-10-15T04:31:34;-23300.69;;;12.80
74321;BMP280;62738;45.772;4.804;2022-10-15T04:34:00;-23302.88;;;12.85
74321;BMP280;62738;45.772;4.804;2022-10-15T04:36:27;-23307.22;;;12.94
74321;BMP280;62738;45.772;4.804;2022-10-15T04:38:53;-23301.66;;;12.82
74321;BMP280;62738;45.772;4.804;2022-10-15T04:41:20;-23306.75;;;12.93
74321;BMP280;62738;45.772;4.804;2022-10-15T04:43:47;-23317.66;;;13.15
74321;BMP280;62738;45.772;4.804;2022-10-15T04:46:13;-23322.72;;;13.25
74321;BMP280;62738;45.772;4.804;2022-10-15T04:48:40;-23318.13;;;13.16
74321;BMP280;62738;45.772;4.804;2022-10-15T04:51:19;-23308.44;;;12.96
74321;BMP280;62738;45.772;4.804;2022-10-15T04:53:46;-23305.78;;;12.91
74321;BMP280;62738;45.772;4.804;2022-10-15T04:56:16;-23319.34;;;13.18
74321;BMP280;62738;45.772;4.804;2022-10-15T04:58:44;-23331.47;;;13.43
74321;BMP280;62738;45.772;4.804;2022-10-15T05:01:14;-23333.88;;;13.48
74321;BMP280;62738;45.772;4.804;2022-10-15T05:03:42;-23334.59;;;13.50
74321;BMP280;62738;45.772;4.804;2022-10-15T05:06:13;-23335.56;;;13.52
74321;BMP280;62738;45.772;4.804;2022-10-15T05:08:41;-23307.72;;;12.95
74321;BMP280;62738;45.772;4.804;2022-10-15T05:11:20;-23314.97;;;13.09
74321;BMP280;62738;45.772;4.804;2022-10-15T05:13:47;-23313.78;;;13.07
74321;BMP280;62738;45.772;4.804;2022-10-15T05:16:19;-23301.19;;;12.81
74321;BMP280;62738;45.772;4.804;2022-10-15T05:18:47;-23315.47;;;13.10
74321;BMP280;62738;45.772;4.804;2022-10-15T05:21:15;-23318.13;;;13.16
74321;BMP280;62738;45.772;4.804;2022-10-15T05:23:42;-23323.47;;;13.27
74321;BMP280;62738;45.772;4.804;2022-10-15T05:26:11;-23326.84;;;13.34
74321;BMP280;62738;45.772;4.804;2022-10-15T05:28:38;-23321.03;;;13.22
74321;BMP280;62738;45.772;4.804;2022-10-15T05:31:10;-23323.47;;;13.27
74321;BMP280;62738;45.772;4.804;2022-10-15T05:33:43;-23329.50;;;13.39
74321;BMP280;62738;45.772;4.804;2022-10-15T05:38:39;-23324.44;;;13.29
74321;BMP280;62738;45.772;4.804;2022-10-15T05:41:06;-23323.94;;;13.28
74321;BMP280;62738;45.772;4.804;2022-10-15T05:43:32;-23312.06;;;13.03
74321;BMP280;62738;45.772;4.804;2022-10-15T05:46:05;-23304.09;;;12.87
74321;BMP280;62738;45.772;4.804;2022-10-15T05:48:32;-23309.91;;;12.99
74321;BMP280;62738;45.772;4.804;2022-10-15T05:51:11;-23317.88;;;13.15
74321;BMP280;62738;45.772;4.804;2022-10-15T05:53:38;-23315.72;;;13.11
74321;BMP280;62738;45.772;4.804;2022-10-15T05:56:06;-23324.19;;;13.28
74321;BMP280;62738;45.772;4.804;2022-10-15T05:58:34;-23323.72;;;13.27
74321;BMP280;62738;45.772;4.804;2022-10-15T06:01:05;-23321.03;;;13.22
74321;BMP280;62738;45.772;4.804;2022-10-15T06:03:33;-23322.00;;;13.24
74321;BMP280;62738;45.772;4.804;2022-10-15T06:05:59;-23336.53;;;13.54
74321;BMP280;62738;45.772;4.804;2022-10-15T06:08:27;-23340.19;;;13.61
74321;BMP280;62738;45.772;4.804;2022-10-15T06:10:55;-23352.28;;;13.86
74321;BMP280;62738;45.772;4.804;2022-10-15T06:13:33;-23329.75;;;13.40
74321;BMP280;62738;45.772;4.804;2022-10-15T06:16:02;-23324.19;;;13.28
74321;BMP280;62738;45.772;4.804;2022-10-15T06:18:29;-23347.19;;;13.76
74321;BMP280;62738;45.772;4.804;2022-10-15T06:20:55;-23317.16;;;13.14
74321;BMP280;62738;45.772;4.804;2022-10-15T06:23:22;-23325.88;;;13.32
74321;BMP280;62738;45.772;4.804;2022-10-15T06:25:50;-23318.13;;;13.16
74321;BMP280;62738;45.772;4.804;2022-10-15T06:28:16;-23330.25;;;13.41
74321;BMP280;62738;45.772;4.804;2022-10-15T06:30:43;-23342.38;;;13.66
74321;BMP280;62738;45.772;4.804;2022-10-15T06:33:10;-23332.44;;;13.45
74321;BMP280;62738;45.772;4.804;2022-10-15T06:35:41;-23331.22;;;13.43
74321;BMP280;62738;45.772;4.804;2022-10-15T06:38:08;-23331.94;;;13.44
74321;BMP280;62738;45.772;4.804;2022-10-15T06:40:36;-23346.00;;;13.73
74321;BMP280;62738;45.772;4.804;2022-10-15T06:43:08;-23347.69;;;13.77
74321;BMP280;62738;45.772;4.804;2022-10-15T06:45:39;-23352.78;;;13.87
74321;BMP280;62738;45.772;4.804;2022-10-15T06:48:07;-23361.00;;;14.04
74321;BMP280;62738;45.772;4.804;2022-10-15T06:50:35;-23355.19;;;13.92
74321;BMP280;62738;45.772;4.804;2022-10-15T06:53:03;-23366.34;;;14.15
74321;BMP280;62738;45.772;4.804;2022-10-15T06:55:30;-23379.66;;;14.42
74321;BMP280;62738;45.772;4.804;2022-10-15T06:57:57;-23372.16;;;14.27
74321;BMP280;62738;45.772;4.804;2022-10-15T07:00:24;-23385.22;;;14.54
74321;BMP280;62738;45.772;4.804;2022-10-15T07:02:51;-23386.44;;;14.56
74321;BMP280;62738;45.772;4.804;2022-10-15T07:05:18;-23376.03;;;14.35
74321;BMP280;62738;45.772;4.804;2022-10-15T07:07:55;-23373.84;;;14.30
74321;BMP280;62738;45.772;4.804;2022-10-15T07:10:23;-23374.81;;;14.32
74321;BMP280;62738;45.772;4.804;2022-10-15T07:12:50;-23385.22;;;14.54
74321;BMP280;62738;45.772;4.804;2022-10-15T07:15:17;-23386.94;;;14.57
74321;BMP280;62738;45.772;4.804;2022-10-15T07:17:52;-23379.66;;;14.42
74321;BMP280;62738;45.772;4.804;2022-10-15T07:20:22;-23388.88;;;14.61
74321;BMP280;62738;45.772;4.804;2022-10-15T07:22:50;-23377.72;;;14.38
74321;BMP280;62738;45.772;4.804;2022-10-15T07:25:17;-23381.84;;;14.47
74321;BMP280;62738;45.772;4.804;2022-10-15T07:27:44;-23379.19;;;14.41
74321;BMP280;62738;45.772;4.804;2022-10-15T07:30:10;-23389.13;;;14.62
74321;BMP280;62738;45.772;4.804;2022-10-15T07:32:37;-23414.06;;;15.13
74321;BMP280;62738;45.772;4.804;2022-10-15T07:35:04;-23406.06;;;14.97
74321;BMP280;62738;45.772;4.804;2022-10-15T07:37:30;-23423.78;;;15.33
74321;BMP280;62738;45.772;4.804;2022-10-15T07:39:57;-23416.00;;;15.17
74321;BMP280;62738;45.772;4.804;2022-10-15T07:42:24;-23413.34;;;15.12
74321;BMP280;62738;45.772;4.804;2022-10-15T07:44:50;-23418.69;;;15.23
74321;BMP280;62738;45.772;4.804;2022-10-15T07:47:17;-23432.72;;;15.51
74321;BMP280;62738;45.772;4.804;2022-10-15T07:49:44;-23433.94;;;15.54
74321;BMP280;62738;45.772;4.804;2022-10-15T07:52:10;-23434.44;;;15.55
74321;BMP280;62738;45.772;4.804;2022-10-15T07:54:37;-23448.00;;;15.83
74321;BMP280;62738;45.772;4.804;2022-10-15T07:57:03;-23434.91;;;15.56
74321;BMP280;62738;45.772;4.804;2022-10-15T07:59:33;-23462.53;;;16.13
74321;BMP280;62738;45.772;4.804;2022-10-15T08:01:59;-23469.81;;;16.28
74321;BMP280;62738;45.772;4.804;2022-10-15T08:04:26;-23478.06;;;16.45
74321;BMP280;62738;45.772;4.804;2022-10-15T08:06:53;-23487.75;;;16.64
74321;BMP280;62738;45.772;4.804;2022-10-15T08:09:19;-23457.69;;;16.03
74321;BMP280;62738;45.772;4.804;2022-10-15T08:11:46;-23463.03;;;16.14
74321;BMP280;62738;45.772;4.804;2022-10-15T08:14:13;-23492.59;;;16.74
74321;BMP280;62738;45.772;4.804;2022-10-15T08:16:40;-23492.84;;;16.75
74321;BMP280;62738;45.772;4.804;2022-10-15T08:19:06;-23484.13;;;16.57
74321;BMP280;62738;45.772;4.804;2022-10-15T08:21:33;-23494.53;;;16.78
74321;BMP280;62738;45.772;4.804;2022-10-15T08:23:59;-23489.44;;;16.68
74321;BMP280;62738;45.772;4.804;2022-10-15T08:26:26;-23495.28;;;16.80
74321;BMP280;62738;45.772;4.804;2022-10-15T08:28:52;-23493.31;;;16.76
74321;BMP280;62738;45.772;4.804;2022-10-15T08:31:19;-23499.16;;;16.88
74321;BMP280;62738;45.772;4.804;2022-10-15T08:33:46;-23505.69;;;17.01
74321;BMP280;62738;45.772;4.804;2022-10-15T08:36:12;-23510.06;;;17.10
74321;BMP280;62738;45.772;4.804;2022-10-15T08:38:39;-23514.66;;;17.20
74321;BMP280;62738;45.772;4.804;2022-10-15T08:41:18;-23517.81;;;17.26
74321;BMP280;62738;45.772;4.804;2022-10-15T08:43:48;-23524.13;;;17.39
74321;BMP280;62738;45.772;4.804;2022-10-15T08:46:19;-23534.31;;;17.60
74321;BMP280;62738;45.772;4.804;2022-10-15T08:48:50;-23536.97;;;17.65
74321;BMP280;62738;45.772;4.804;2022-10-15T08:51:21;-23538.66;;;17.69
74321;BMP280;62738;45.772;4.804;2022-10-15T08:53:53;-23542.06;;;17.76
74321;BMP280;62738;45.772;4.804;2022-10-15T08:56:33;-23548.38;;;17.89
74321;BMP280;62738;45.772;4.804;2022-10-15T09:01:58;-23555.16;;;18.03
74321;BMP280;62738;45.772;4.804;2022-10-15T09:04:30;-23557.59;;;18.08
74321;BMP280;62738;45.772;4.804;2022-10-15T09:10:30;-23552.25;;;17.97
74321;BMP280;62738;45.772;4.804;2022-10-15T09:12:53;-23551.50;;;17.95
74321;BMP280;62738;45.772;4.804;2022-10-15T09:15:21;-23559.03;;;18.11
74321;BMP280;62738;45.772;4.804;2022-10-15T09:17:54;-23575.03;;;18.44
74321;BMP280;62738;45.772;4.804;2022-10-15T09:20:29;-23577.47;;;18.49
74321;BMP280;62738;45.772;4.804;2022-10-15T09:22:56;-23577.94;;;18.50
74321;BMP280;62738;45.772;4.804;2022-10-15T09:25:23;-23576.75;;;18.47
74321;BMP280;62738;45.772;4.804;2022-10-15T09:27:55;-23578.44;;;18.51
74321;BMP280;62738;45.772;4.804;2022-10-15T09:30:47;-23586.19;;;18.66
74321;BMP280;62738;45.772;4.804;2022-10-15T09:36:12;-23586.19;;;18.66
74321;BMP280;62738;45.772;4.804;2022-10-15T09:38:47;-23596.88;;;18.88
74321;BMP280;62738;45.772;4.804;2022-10-15T09:43:58;-23607.53;;;19.10
74321;BMP280;62738;45.772;4.804;2022-10-15T09:46:28;-23608.03;;;19.11
74321;BMP280;62738;45.772;4.804;2022-10-15T09:57:46;-23605.59;;;19.06
74321;BMP280;62738;45.772;4.804;2022-10-15T10:00:14;-23617.25;;;19.30
74321;BMP280;62738;45.772;4.804;2022-10-15T10:02:40;-23618.69;;;19.33
74321;BMP280;62738;45.772;4.804;2022-10-15T10:05:19;-23620.41;;;19.37
74321;BMP280;62738;45.772;4.804;2022-10-15T10:07:46;-23631.78;;;19.60
74321;BMP280;62738;45.772;4.804;2022-10-15T10:10:31;-23630.84;;;19.58
74321;BMP280;62738;45.772;4.804;2022-10-15T10:12:59;-23632.28;;;19.61
74321;BMP280;62738;45.772;4.804;2022-10-15T10:15:39;-23630.34;;;19.57
74321;BMP280;62738;45.772;4.804;2022-10-15T10:18:18;-23635.69;;;19.68
74321;BMP280;62738;45.772;4.804;2022-10-15T10:20:52;-23639.56;;;19.76
74321;BMP280;62738;45.772;4.804;2022-10-15T10:23:23;-23638.84;;;19.74
74321;BMP280;62738;45.772;4.804;2022-10-15T10:25:50;-23638.59;;;19.74
74321;BMP280;62738;45.772;4.804;2022-10-15T10:28:26;-23639.09;;;19.75
74321;BMP280;62738;45.772;4.804;2022-10-15T10:33:31;-23640.53;;;19.78
74321;BMP280;62738;45.772;4.804;2022-10-15T10:35:58;-23645.38;;;19.88
74321;BMP280;62738;45.772;4.804;2022-10-15T10:38:31;-23649.75;;;19.97
74321;BMP280;62738;45.772;4.804;2022-10-15T10:41:09;-23658.72;;;20.15
74321;BMP280;62738;45.772;4.804;2022-10-15T10:43:38;-23663.56;;;20.25
74321;BMP280;62738;45.772;4.804;2022-10-15T10:46:17;-23650.97;;;19.99
74321;BMP280;62738;45.772;4.804;2022-10-15T10:48:49;-23662.13;;;20.22
74321;BMP280;62738;45.772;4.804;2022-10-15T10:51:24;-23668.44;;;20.35
74321;BMP280;62738;45.772;4.804;2022-10-15T10:54:04;-23669.63;;;20.38
74321;BMP280;62738;45.772;4.804;2022-10-15T10:56:39;-23668.69;;;20.36
74321;BMP280;62738;45.772;4.804;2022-10-15T10:59:15;-23678.63;;;20.56
74321;BMP280;62738;45.772;4.804;2022-10-15T11:01:43;-23684.69;;;20.68
74321;BMP280;62738;45.772;4.804;2022-10-15T11:04:20;-23685.66;;;20.70
74321;BMP280;62738;45.772;4.804;2022-10-15T11:07:11;-23694.88;;;20.89
74321;BMP280;62738;45.772;4.804;2022-10-15T11:12:36;-23693.41;;;20.86
74321;BMP280;62738;45.772;4.804;2022-10-15T11:15:34;-23693.91;;;20.87
74321;BMP280;62738;45.772;4.804;2022-10-15T11:21:40;-23694.63;;;20.89
74321;BMP280;62738;45.772;4.804;2022-10-15T11:26:36;-23701.66;;;21.03
74321;BMP280;62738;45.772;4.804;2022-10-15T11:41:20;-23703.38;;;21.07
74321;BMP280;62738;45.772;4.804;2022-10-15T11:52:27;-23721.31;;;21.43
74321;BMP280;62738;45.772;4.804;2022-10-15T11:55:10;-23719.13;;;21.39
74321;BMP280;62738;45.772;4.804;2022-10-15T11:57:40;-23734.44;;;21.70
74321;BMP280;62738;45.772;4.804;2022-10-15T12:00:14;-23737.09;;;21.76
74321;BMP280;62738;45.772;4.804;2022-10-15T12:02:45;-23735.16;;;21.72
74321;BMP280;62738;45.772;4.804;2022-10-15T12:05:18;-23745.84;;;21.94
74321;BMP280;62738;45.772;4.804;2022-10-15T12:07:48;-23753.34;;;22.09
74321;BMP280;62738;45.772;4.804;2022-10-15T12:10:55;-23750.44;;;22.03
74321;BMP280;62738;45.772;4.804;2022-10-15T12:13:55;-23748.50;;;21.99
74321;BMP280;62738;45.772;4.804;2022-10-15T12:19:03;-23748.75;;;22.00
74321;BMP280;62738;45.772;4.804;2022-10-15T12:29:47;-23759.66;;;22.22
74321;BMP280;62738;45.772;4.804;2022-10-15T12:32:44;-23761.59;;;22.26
74321;BMP280;62738;45.772;4.804;2022-10-15T12:37:43;-23771.56;;;22.46
74321;BMP280;62738;45.772;4.804;2022-10-15T12:40:29;-23771.56;;;22.46
74321;BMP280;62738;45.772;4.804;2022-10-15T12:42:59;-23773.75;;;22.51
74321;BMP280;62738;45.772;4.804;2022-10-15T12:45:39;-23770.34;;;22.44
74321;BMP280;62738;45.772;4.804;2022-10-15T12:50:35;-23787.81;;;22.80
74321;BMP280;62738;45.772;4.804;2022-10-15T12:53:04;-23762.59;;;22.28
74321;BMP280;62738;45.772;4.804;2022-10-15T12:55:35;-23778.59;;;22.61
74321;BMP280;62738;45.772;4.804;2022-10-15T12:58:30;-23782.72;;;22.69
74321;BMP280;62738;45.772;4.804;2022-10-15T13:00:57;-23788.78;;;22.82
74321;BMP280;62738;45.772;4.804;2022-10-15T13:03:35;-23771.06;;;22.45
74321;BMP280;62738;45.772;4.804;2022-10-15T13:06:35;-23771.81;;;22.47
74321;BMP280;62738;45.772;4.804;2022-10-15T13:11:39;-23773.97;;;22.51
74321;BMP280;62738;45.772;4.804;2022-10-15T13:14:16;-23783.69;;;22.71
74321;BMP280;62738;45.772;4.804;2022-10-15T13:16:46;-23780.53;;;22.65
74321;BMP280;62738;45.772;4.804;2022-10-15T13:19:21;-23779.56;;;22.63
74321;BMP280;62738;45.772;4.804;2022-10-15T13:22:19;-23784.19;;;22.72
74321;BMP280;62738;45.772;4.804;2022-10-15T13:24:47;-23793.63;;;22.92
74321;BMP280;62738;45.772;4.804;2022-10-15T13:27:20;-23799.72;;;23.04
74321;BMP280;62738;45.772;4.804;2022-10-15T13:32:30;-23799.22;;;23.03
74321;BMP280;62738;45.772;4.804;2022-10-15T13:34:58;-23792.94;;;22.90
74321;BMP280;62738;45.772;4.804;2022-10-15T13:37:30;-23786.84;;;22.78
74321;BMP280;62738;45.772;4.804;2022-10-15T13:39:58;-23775.94;;;22.55
74321;BMP280;62738;45.772;4.804;2022-10-15T13:42:32;-23762.59;;;22.28
74321;BMP280;62738;45.772;4.804;2022-10-15T13:45:10;-23782.72;;;22.69
74321;BMP280;62738;45.772;4.804;2022-10-15T13:47:46;-23786.59;;;22.77
74321;BMP280;62738;45.772;4.804;2022-10-15T13:50:20;-23794.13;;;22.93
74321;BMP280;62738;45.772;4.804;2022-10-15T13:55:27;-23786.84;;;22.78
74321;BMP280;62738;45.772;4.804;2022-10-15T14:03:35;-23802.16;;;23.09
74321;BMP280;62738;45.772;4.804;2022-10-15T14:06:20;-23796.81;;;22.98
74321;BMP280;62738;45.772;4.804;2022-10-15T14:08:49;-23793.16;;;22.91
74321;BMP280;62738;45.772;4.804;2022-10-15T14:11:16;-23784.19;;;22.72
74321;BMP280;62738;45.772;4.804;2022-10-15T14:13:46;-23794.63;;;22.94
74321;BMP280;62738;45.772;4.804;2022-10-15T14:16:18;-23789.28;;;22.83
74321;BMP280;62738;45.772;4.804;2022-10-15T14:18:48;-23797.78;;;23.00
74321;BMP280;62738;45.772;4.804;2022-10-15T14:21:17;-23786.13;;;22.76
74321;BMP280;62738;45.772;4.804;2022-10-15T14:23:46;-23790.50;;;22.85
74321;BMP280;62738;45.772;4.804;2022-10-15T14:26:13;-23805.06;;;23.15
74321;BMP280;62738;45.772;4.804;2022-10-15T14:28:41;-23825.19;;;23.56
74321;BMP280;62738;45.772;4.804;2022-10-15T14:31:27;-23836.13;;;23.78
74321;BMP280;62738;45.772;4.804;2022-10-15T14:33:55;-23825.44;;;23.57
74321;BMP280;62738;45.772;4.804;2022-10-15T14:36:24;-23832.00;;;23.70
74321;BMP280;62738;45.772;4.804;2022-10-15T14:38:51;-23834.66;;;23.76
74321;BMP280;62738;45.772;4.804;2022-10-15T14:41:30;-23822.78;;;23.51
74321;BMP280;62738;45.772;4.804;2022-10-15T14:46:37;-23826.66;;;23.59
74321;BMP280;62738;45.772;4.804;2022-10-15T14:49:35;-23826.44;;;23.59
74321;BMP280;62738;45.772;4.804;2022-10-15T14:52:07;-23815.72;;;23.37
74321;BMP280;62738;45.772;4.804;2022-10-15T14:54:41;-23814.28;;;23.34
74321;BMP280;62738;45.772;4.804;2022-10-15T14:57:25;-23822.28;;;23.50
74321;BMP280;62738;45.772;4.804;2022-10-15T14:59:55;-23824.72;;;23.55
74321;BMP280;62738;45.772;4.804;2022-10-15T15:02:27;-23820.09;;;23.46
74321;BMP280;62738;45.772;4.804;2022-10-15T15:05:27;-23808.69;;;23.22
74321;BMP280;62738;45.772;4.804;2022-10-15T15:07:54;-23811.59;;;23.28
74321;BMP280;62738;45.772;4.804;2022-10-15T15:10:23;-23821.31;;;23.48
74321;BMP280;62738;45.772;4.804;2022-10-15T15:12:52;-23815.72;;;23.37
74321;BMP280;62738;45.772;4.804;2022-10-15T15:15:20;-23821.06;;;23.48
74321;BMP280;62738;45.772;4.804;2022-10-15T15:17:48;-23824.22;;;23.54
74321;BMP280;62738;45.772;4.804;2022-10-15T15:20:16;-23819.38;;;23.44
74321;BMP280;62738;45.772;4.804;2022-10-15T15:22:49;-23822.78;;;23.51
74321;BMP280;62738;45.772;4.804;2022-10-15T15:25:19;-23831.75;;;23.70
74321;BMP280;62738;45.772;4.804;2022-10-15T15:27:46;-23810.88;;;23.27
74321;BMP280;62738;45.772;4.804;2022-10-15T15:30:19;-23820.09;;;23.46
74321;BMP280;62738;45.772;4.804;2022-10-15T15:32:46;-23823.50;;;23.53
74321;BMP280;62738;45.772;4.804;2022-10-15T15:35:25;-23830.78;;;23.68
74321;BMP280;62738;45.772;4.804;2022-10-15T15:37:53;-23834.19;;;23.75
74321;BMP280;62738;45.772;4.804;2022-10-15T15:40:20;-23822.03;;;23.50
74321;BMP280;62738;45.772;4.804;2022-10-15T15:42:47;-23805.06;;;23.15
74321;BMP280;62738;45.772;4.804;2022-10-15T15:45:21;-23799.97;;;23.04
74321;BMP280;62738;45.772;4.804;2022-10-15T15:47:48;-23791.47;;;22.87
74321;BMP280;62738;45.772;4.804;2022-10-15T15:50:16;-23789.03;;;22.82
74321;BMP280;62738;45.772;4.804;2022-10-15T15:52:43;-23794.88;;;22.94
74321;BMP280;62738;45.772;4.804;2022-10-15T15:55:11;-23794.13;;;22.93
74321;BMP280;62738;45.772;4.804;2022-10-15T15:57:37;-23790.00;;;22.84
74321;BMP280;62738;45.772;4.804;2022-10-15T16:00:07;-23788.06;;;22.80
74321;BMP280;62738;45.772;4.804;2022-10-15T16:02:35;-23787.59;;;22.79
74321;BMP280;62738;45.772;4.804;2022-10-15T16:05:03;-23784.66;;;22.73
74321;BMP280;62738;45.772;4.804;2022-10-15T16:07:33;-23781.28;;;22.66
74321;BMP280;62738;45.772;4.804;2022-10-15T16:10:01;-23778.09;;;22.60